Portada
METAR-TAF:

METAR-TAF

Aeropuertos :

Aeropuerto de Granada

Granada, España

latitud: 37-11N, longitud: 003-47W, altitud: 567 m

Observación

El informe se hizo hace 21 minutos, a las 04:30 UTC
Viento 1 kt del suroeste
Temperatura 2°C
Humedad 87%
Presión 1023 hPa
Visibilidad 10 km o más
sin nubes por debajo de 1500 m y sin presencia de cumulonimbus.

METAR: LEGR 270430Z AUTO 22001KT CAVOK 02/00 Q1023

Hora: 05:51 (04:51 UTC)

Pronóstico

El informe se hizo hace 2 horas y 51 minutos, a las 02:00 UTC
Pronóstico válido del 27 a las 03 UTC al 28 a las 03 UTC
Viento 2 kt con dirección variable
Visibilidad 10 km o más
sin nubes por debajo de 1500 m y sin presencia de cumulonimbus.
Probabilidad 30% :
Temporalmente
del 27 a las 15 UTC al 27 a las 17 UTC
Viento 10 kt del noroeste

TAF: LEGR 270200Z 2703/2803 VRB02KT CAVOK TX22/2715Z TNM00/2707Z PROB30 TEMPO 2715/2717 31010KT

Observaciones y pronósticos meteorológicos de más de 4000 aeropuertos (mensajes METAR y TAF).

Los puntos amarillos y rojos representan las estaciones disponibles.

Ponga el ratón en el punto deseado para ver el nombre de la estación.

Haga clic para ver las observaciones y los pronósticos meteorológicos.

Para cambiar el mapa : haga clic en los botones verdes con una cruz de color negro para hacer un zoom, en el botón verde con un guión para alejar o en las flechas verdes para mapas adyacentes.


METAR-TAF: